Time;durP1;ratioP1;P1;durP2;ratioP2;P2;SDS_P1;SDS_P2;PMS_P1;PMS_P2;Temp;Humidity;BMP_temperature;BMP_pressure;BME280_temperature;BME280_humidity;BME280_pressure;Samples;Min_cycle;Max_cycle;Signal;HPM_P1;HPM_P2
2021/08/18 00:01:13;;;;;;;5.25;1.27;;;;;;;;;;5052384;28;20021;-73
2021/08/18 00:03:40;;;;;;;4.40;1.27;;;;;;;;;;5034918;28;20508;-73
2021/08/18 00:06:06;;;;;;;3.35;1.55;;;;;;;;;;5052501;28;20040;-73
2021/08/18 00:08:32;;;;;;;2.83;1.23;;;;;;;;;;5052832;28;20426;-73
2021/08/18 00:10:59;;;;;;;2.72;1.10;;;;;;;;;;5053130;28;20025;-73
2021/08/18 00:13:25;;;;;;;2.58;1.20;;;;;;;;;;5035126;28;20120;-73
2021/08/18 00:15:51;;;;;;;4.75;1.30;;;;;;;;;;5053193;28;20017;-73
2021/08/18 00:18:18;;;;;;;2.83;0.95;;;;;;;;;;5035246;28;20025;-73
2021/08/18 00:20:44;;;;;;;3.35;1.40;;;;;;;;;;5052626;28;20021;-72
2021/08/18 00:23:10;;;;;;;3.90;1.23;;;;;;;;;;5053034;28;20083;-73
2021/08/18 00:25:36;;;;;;;3.05;0.90;;;;;;;;;;5034851;28;20027;-73
2021/08/18 00:28:02;;;;;;;2.95;1.25;;;;;;;;;;5052732;28;20104;-73
2021/08/18 00:30:29;;;;;;;2.90;1.17;;;;;;;;;;5034684;28;20150;-73
2021/08/18 00:32:55;;;;;;;1.90;1.02;;;;;;;;;;5034873;28;20029;-72
2021/08/18 00:35:21;;;;;;;2.17;0.93;;;;;;;;;;5052758;28;20071;-73
2021/08/18 00:37:47;;;;;;;3.40;1.23;;;;;;;;;;5033631;28;20029;-72
2021/08/18 00:40:14;;;;;;;1.95;0.80;;;;;;;;;;5052142;28;20061;-72
2021/08/18 00:42:41;;;;;;;2.58;1.00;;;;;;;;;;5052465;28;20033;-72
2021/08/18 00:45:08;;;;;;;2.72;1.15;;;;;;;;;;5052333;28;20538;-72
2021/08/18 00:47:44;;;;;;;2.67;1.13;;;;;;;;;;5052476;28;20032;-72
2021/08/18 00:50:12;;;;;;;3.00;1.20;;;;;;;;;;5052566;28;20022;-73
2021/08/18 00:52:38;;;;;;;2.47;1.05;;;;;;;;;;5051863;28;20353;-72
2021/08/18 00:55:04;;;;;;;2.55;1.15;;;;;;;;;;5052178;28;20510;-72
2021/08/18 00:57:31;;;;;;;2.08;0.93;;;;;;;;;;5032462;28;20116;-72
2021/08/18 00:59:57;;;;;;;2.50;1.10;;;;;;;;;;5052265;28;20028;-73
2021/08/18 01:02:23;;;;;;;3.50;1.20;;;;;;;;;;5034244;28;20121;-74
2021/08/18 01:04:49;;;;;;;2.20;1.10;;;;;;;;;;5052432;28;20025;-72
2021/08/18 01:07:15;;;;;;;2.25;0.90;;;;;;;;;;5052295;28;20021;-73
2021/08/18 01:09:41;;;;;;;2.38;1.00;;;;;;;;;;5052368;28;20056;-72
2021/08/18 01:12:08;;;;;;;3.22;1.40;;;;;;;;;;5033753;28;20037;-73
2021/08/18 01:14:34;;;;;;;2.17;1.10;;;;;;;;;;5052124;28;20028;-73
2021/08/18 01:17:00;;;;;;;1.90;0.95;;;;;;;;;;5034138;28;20027;-73
2021/08/18 01:19:26;;;;;;;2.83;1.20;;;;;;;;;;5051115;28;20060;-72
2021/08/18 01:21:52;;;;;;;2.92;1.08;;;;;;;;;;5033777;28;20028;-73
2021/08/18 01:24:19;;;;;;;2.53;1.20;;;;;;;;;;5051764;28;20104;-73
2021/08/18 01:26:45;;;;;;;2.90;1.20;;;;;;;;;;5051786;28;20587;-73
2021/08/18 01:29:12;;;;;;;4.22;1.23;;;;;;;;;;5051833;28;20086;-72
2021/08/18 01:31:38;;;;;;;3.03;1.30;;;;;;;;;;5051856;28;20075;-73
2021/08/18 01:34:04;;;;;;;3.55;1.15;;;;;;;;;;5033529;28;20028;-73
2021/08/18 01:36:31;;;;;;;2.20;0.82;;;;;;;;;;5034058;28;20029;-72
2021/08/18 01:39:01;;;;;;;2.35;1.10;;;;;;;;;;5031847;28;20453;-72
2021/08/18 01:41:27;;;;;;;4.88;1.30;;;;;;;;;;5038843;28;20022;-74
2021/08/18 01:43:53;;;;;;;3.13;1.15;;;;;;;;;;5035607;28;20052;-73
2021/08/18 01:46:19;;;;;;;4.75;1.30;;;;;;;;;;5035794;28;20037;-73
2021/08/18 01:48:45;;;;;;;3.10;1.35;;;;;;;;;;5039124;28;20025;-73
2021/08/18 01:51:11;;;;;;;3.28;1.58;;;;;;;;;;5036511;28;20078;-72
2021/08/18 01:53:41;;;;;;;3.22;1.23;;;;;;;;;;5037312;28;20084;-73
2021/08/18 01:56:09;;;;;;;3.15;1.40;;;;;;;;;;5035768;28;20022;-73
2021/08/18 01:58:35;;;;;;;4.88;1.55;;;;;;;;;;5036834;28;20037;-73
2021/08/18 02:01:02;;;;;;;2.92;1.27;;;;;;;;;;5035271;28;20060;-73
2021/08/18 02:03:28;;;;;;;3.50;1.08;;;;;;;;;;5052094;28;20048;-72
2021/08/18 02:05:54;;;;;;;4.53;1.23;;;;;;;;;;5055289;28;20029;-73
2021/08/18 02:08:20;;;;;;;3.97;1.17;;;;;;;;;;5054890;28;20032;-73
2021/08/18 02:10:46;;;;;;;3.50;1.33;;;;;;;;;;5037334;28;20383;-72
2021/08/18 02:13:13;;;;;;;2.53;1.10;;;;;;;;;;5055105;28;20118;-73
2021/08/18 02:15:39;;;;;;;2.97;1.10;;;;;;;;;;5037639;28;20025;-73
2021/08/18 02:18:06;;;;;;;2.67;1.27;;;;;;;;;;5055138;28;20021;-72
2021/08/18 02:20:33;;;;;;;3.13;1.25;;;;;;;;;;5055345;28;20075;-72
2021/08/18 02:22:59;;;;;;;3.17;1.27;;;;;;;;;;5036687;28;20388;-73
2021/08/18 02:25:25;;;;;;;4.43;1.30;;;;;;;;;;5055229;28;20086;-73
2021/08/18 02:27:51;;;;;;;3.13;1.48;;;;;;;;;;5054859;28;20017;-73
2021/08/18 02:30:20;;;;;;;3.47;1.23;;;;;;;;;;5037200;28;20028;-73
2021/08/18 02:32:46;;;;;;;3.83;1.20;;;;;;;;;;5037101;28;20035;-72
2021/08/18 02:35:13;;;;;;;2.75;1.27;;;;;;;;;;5055024;28;20021;-73
2021/08/18 02:37:39;;;;;;;2.83;1.27;;;;;;;;;;5054773;28;20036;-72
2021/08/18 02:40:06;;;;;;;3.85;1.30;;;;;;;;;;5036609;28;20056;-72
2021/08/18 02:42:33;;;;;;;2.67;1.10;;;;;;;;;;5054760;28;20108;-73
2021/08/18 02:44:59;;;;;;;2.70;1.23;;;;;;;;;;5054941;28;20017;-73
2021/08/18 02:47:25;;;;;;;5.25;1.52;;;;;;;;;;5037066;28;20052;-72
2021/08/18 02:49:51;;;;;;;3.25;1.40;;;;;;;;;;5054281;28;20468;-72
2021/08/18 02:52:17;;;;;;;3.75;1.50;;;;;;;;;;5036511;28;20175;-73
2021/08/18 02:54:43;;;;;;;5.90;1.27;;;;;;;;;;5035779;28;20083;-73
2021/08/18 02:57:09;;;;;;;3.42;1.30;;;;;;;;;;5054589;28;20150;-73
2021/08/18 02:59:35;;;;;;;2.40;1.27;;;;;;;;;;5054538;28;20021;-73
2021/08/18 03:02:01;;;;;;;2.88;1.10;;;;;;;;;;5054361;28;20024;-73
2021/08/18 03:04:27;;;;;;;2.33;1.13;;;;;;;;;;5036313;28;20036;-72
2021/08/18 03:06:54;;;;;;;2.97;1.10;;;;;;;;;;5054173;28;20028;-73
2021/08/18 03:09:21;;;;;;;2.83;1.30;;;;;;;;;;5054210;28;20033;-74
2021/08/18 03:11:47;;;;;;;3.05;1.35;;;;;;;;;;5054288;28;20029;-72
2021/08/18 03:14:13;;;;;;;2.10;1.02;;;;;;;;;;5052573;28;20059;-72
2021/08/18 03:16:39;;;;;;;5.07;1.27;;;;;;;;;;5054312;28;20025;-73
2021/08/18 03:19:05;;;;;;;2.33;1.15;;;;;;;;;;5054246;28;20079;-73
2021/08/18 03:21:31;;;;;;;4.40;1.70;;;;;;;;;;5035875;28;20024;-73
2021/08/18 03:23:57;;;;;;;2.45;1.13;;;;;;;;;;5053619;28;20031;-73
2021/08/18 03:26:23;;;;;;;2.60;1.27;;;;;;;;;;5053881;28;20024;-72
2021/08/18 03:28:49;;;;;;;3.63;1.40;;;;;;;;;;5053806;28;20128;-72
2021/08/18 03:31:16;;;;;;;2.42;1.20;;;;;;;;;;5035993;28;20025;-73
2021/08/18 03:33:42;;;;;;;4.85;0.98;;;;;;;;;;5035876;28;20119;-73
2021/08/18 03:36:08;;;;;;;4.97;1.33;;;;;;;;;;5053658;28;20082;-73
2021/08/18 03:38:35;;;;;;;5.93;1.50;;;;;;;;;;5053839;28;20021;-73
2021/08/18 03:41:01;;;;;;;2.75;1.17;;;;;;;;;;5036003;28;20071;-73
2021/08/18 03:43:27;;;;;;;3.58;1.48;;;;;;;;;;5035807;28;20025;-73
2021/08/18 03:45:53;;;;;;;4.05;1.10;;;;;;;;;;5053243;28;20057;-73
2021/08/18 03:48:19;;;;;;;2.33;1.05;;;;;;;;;;5053489;28;20013;-73
2021/08/18 03:50:46;;;;;;;4.20;1.25;;;;;;;;;;5053135;28;20037;-72
2021/08/18 03:53:12;;;;;;;2.22;1.08;;;;;;;;;;5053335;28;20056;-72
2021/08/18 03:55:38;;;;;;;2.72;1.33;;;;;;;;;;5035202;28;20443;-72
2021/08/18 03:58:05;;;;;;;4.57;1.50;;;;;;;;;;5053338;28;20025;-73
2021/08/18 04:00:31;;;;;;;3.25;1.45;;;;;;;;;;5052766;28;20052;-72
2021/08/18 04:02:57;;;;;;;3.00;1.08;;;;;;;;;;5029039;28;20020;-72
2021/08/18 04:05:23;;;;;;;2.25;1.10;;;;;;;;;;5035031;28;20104;-73
2021/08/18 04:07:49;;;;;;;2.30;1.17;;;;;;;;;;5035470;28;20048;-73
2021/08/18 04:10:15;;;;;;;4.97;1.65;;;;;;;;;;5053319;28;20024;-72
2021/08/18 04:12:48;;;;;;;4.22;1.30;;;;;;;;;;5052558;28;20029;-73
2021/08/18 04:15:14;;;;;;;4.20;1.38;;;;;;;;;;5035418;28;20021;-72
2021/08/18 04:17:40;;;;;;;3.65;1.50;;;;;;;;;;5052982;28;20025;-73
2021/08/18 04:20:06;;;;;;;3.78;1.13;;;;;;;;;;5053088;28;20027;-72
2021/08/18 04:22:32;;;;;;;2.95;1.33;;;;;;;;;;5052074;28;20025;-73
2021/08/18 04:24:58;;;;;;;2.70;1.15;;;;;;;;;;5052578;28;20018;-72
2021/08/18 04:27:24;;;;;;;3.95;1.20;;;;;;;;;;5052775;28;20031;-73
2021/08/18 04:29:50;;;;;;;2.97;1.30;;;;;;;;;;5052786;28;20031;-72
2021/08/18 04:32:16;;;;;;;3.50;1.42;;;;;;;;;;5052016;28;20037;-72
2021/08/18 04:34:42;;;;;;;3.58;1.48;;;;;;;;;;5035051;28;20025;-72
2021/08/18 04:37:10;;;;;;;3.75;1.33;;;;;;;;;;5034764;28;20052;-73
2021/08/18 04:39:36;;;;;;;2.22;1.10;;;;;;;;;;5052602;28;20435;-73
2021/08/18 04:42:02;;;;;;;2.40;1.00;;;;;;;;;;5052587;28;20439;-72
2021/08/18 04:44:28;;;;;;;2.17;1.00;;;;;;;;;;5034664;28;20029;-73
2021/08/18 04:46:54;;;;;;;2.22;1.02;;;;;;;;;;5052361;28;20047;-73
2021/08/18 04:49:20;;;;;;;2.63;1.20;;;;;;;;;;5052549;28;20047;-73
2021/08/18 04:51:46;;;;;;;3.17;1.05;;;;;;;;;;5052555;28;20029;-72
2021/08/18 04:54:12;;;;;;;2.75;1.00;;;;;;;;;;5052093;28;20045;-73
2021/08/18 04:56:38;;;;;;;2.40;1.10;;;;;;;;;;5052256;28;20100;-72
2021/08/18 04:59:04;;;;;;;2.92;1.10;;;;;;;;;;5052425;28;20021;-73
2021/08/18 05:01:30;;;;;;;2.60;1.10;;;;;;;;;;5034418;28;20025;-73
2021/08/18 05:03:56;;;;;;;3.38;0.98;;;;;;;;;;5034573;28;20483;-73
2021/08/18 05:06:22;;;;;;;3.03;1.15;;;;;;;;;;5052318;28;20500;-73
2021/08/18 05:08:48;;;;;;;3.60;1.52;;;;;;;;;;5052084;28;20021;-73
2021/08/18 05:11:14;;;;;;;3.45;1.20;;;;;;;;;;5051913;28;20116;-73
2021/08/18 05:13:40;;;;;;;4.63;1.40;;;;;;;;;;5033587;28;20032;-72
2021/08/18 05:16:06;;;;;;;3.30;1.30;;;;;;;;;;5052211;28;20488;-73
2021/08/18 05:18:32;;;;;;;4.03;1.25;;;;;;;;;;5052110;28;20492;-72
2021/08/18 05:20:59;;;;;;;5.00;1.38;;;;;;;;;;5052203;28;20021;-73
2021/08/18 05:23:25;;;;;;;4.28;1.02;;;;;;;;;;5049801;28;20033;-73
2021/08/18 05:25:51;;;;;;;3.25;1.40;;;;;;;;;;5032074;28;20050;-73
2021/08/18 05:28:18;;;;;;;2.50;1.27;;;;;;;;;;5031808;28;20083;-72
2021/08/18 05:30:44;;;;;;;4.70;1.30;;;;;;;;;;5031986;28;20381;-74
2021/08/18 05:33:11;;;;;;;2.10;1.05;;;;;;;;;;5031784;28;20091;-72
2021/08/18 05:35:37;;;;;;;3.05;1.40;;;;;;;;;;5032210;28;20022;-73
2021/08/18 05:38:03;;;;;;;3.53;1.05;;;;;;;;;;5035485;28;20104;-73
2021/08/18 05:40:29;;;;;;;3.05;1.45;;;;;;;;;;5036048;28;20021;-73
2021/08/18 05:42:55;;;;;;;4.30;1.52;;;;;;;;;;5018292;28;20029;-72
2021/08/18 05:45:21;;;;;;;3.17;1.30;;;;;;;;;;5035803;28;20021;-73
2021/08/18 05:47:47;;;;;;;4.88;1.60;;;;;;;;;;5035600;28;20014;-73
2021/08/18 05:50:13;;;;;;;4.13;1.63;;;;;;;;;;5035923;28;20017;-73
2021/08/18 05:52:39;;;;;;;3.55;1.20;;;;;;;;;;5035864;28;20527;-72
2021/08/18 05:55:06;;;;;;;2.95;1.30;;;;;;;;;;5035633;28;20110;-73
2021/08/18 05:57:32;;;;;;;4.45;1.90;;;;;;;;;;5035412;28;20017;-73
2021/08/18 05:59:58;;;;;;;5.25;1.77;;;;;;;;;;5017903;28;20026;-72
2021/08/18 06:02:24;;;;;;;3.40;1.60;;;;;;;;;;5017097;28;20033;-72
2021/08/18 06:04:50;;;;;;;4.07;1.60;;;;;;;;;;5051621;28;20053;-72
2021/08/18 06:07:16;;;;;;;3.15;1.27;;;;;;;;;;5055500;28;20017;-73
2021/08/18 06:09:43;;;;;;;5.07;1.60;;;;;;;;;;5037553;28;20428;-73
2021/08/18 06:12:09;;;;;;;6.88;1.50;;;;;;;;;;5037363;28;20496;-73
2021/08/18 06:14:35;;;;;;;3.22;1.30;;;;;;;;;;5055338;28;20472;-72
2021/08/18 06:17:01;;;;;;;3.30;1.50;;;;;;;;;;5055140;28;20087;-73
2021/08/18 06:19:27;;;;;;;3.28;1.40;;;;;;;;;;5055228;28;20044;-73
2021/08/18 06:21:53;;;;;;;3.80;1.50;;;;;;;;;;5037393;28;20113;-73
2021/08/18 06:24:29;;;;;;;6.07;1.45;;;;;;;;;;5037245;28;20480;-73
2021/08/18 06:26:57;;;;;;;3.60;1.60;;;;;;;;;;5055272;28;20180;-74
2021/08/18 06:29:24;;;;;;;3.78;1.50;;;;;;;;;;5055083;28;20083;-73
2021/08/18 06:31:52;;;;;;;3.00;1.30;;;;;;;;;;5054998;28;20120;-72
2021/08/18 06:34:18;;;;;;;4.72;1.38;;;;;;;;;;5055037;28;20024;-73
2021/08/18 06:36:45;;;;;;;4.28;1.73;;;;;;;;;;5036813;28;20380;-73
2021/08/18 06:39:11;;;;;;;5.65;1.67;;;;;;;;;;5054887;28;20104;-72
2021/08/18 06:41:37;;;;;;;4.15;1.60;;;;;;;;;;5037106;28;20028;-73
2021/08/18 06:44:03;;;;;;;7.10;1.35;;;;;;;;;;5055012;28;20025;-73
2021/08/18 06:46:29;;;;;;;3.45;1.73;;;;;;;;;;5054380;28;20027;-73
2021/08/18 06:48:55;;;;;;;3.45;1.60;;;;;;;;;;5054499;28;20155;-73
2021/08/18 06:51:21;;;;;;;4.75;1.77;;;;;;;;;;5036702;28;20017;-73
2021/08/18 06:53:47;;;;;;;4.22;1.58;;;;;;;;;;5054326;28;20132;-72
2021/08/18 06:56:13;;;;;;;6.03;1.65;;;;;;;;;;5054546;28;20021;-73
2021/08/18 06:58:39;;;;;;;5.05;1.70;;;;;;;;;;5054506;28;20061;-73
2021/08/18 07:01:06;;;;;;;5.63;1.70;;;;;;;;;;5054594;28;20032;-73
2021/08/18 07:03:33;;;;;;;5.85;1.92;;;;;;;;;;5054546;28;20048;-72
2021/08/18 07:05:59;;;;;;;4.68;1.80;;;;;;;;;;5054392;28;20067;-74
2021/08/18 07:08:25;;;;;;;4.22;1.80;;;;;;;;;;5054356;28;20602;-72
2021/08/18 07:10:53;;;;;;;7.78;1.88;;;;;;;;;;5036529;28;20021;-73
2021/08/18 07:13:19;;;;;;;6.00;2.03;;;;;;;;;;5054262;28;20033;-73
2021/08/18 07:15:46;;;;;;;6.90;1.85;;;;;;;;;;5036362;28;20031;-74
2021/08/18 07:18:12;;;;;;;4.97;1.98;;;;;;;;;;5036225;28;20545;-73
2021/08/18 07:20:38;;;;;;;5.88;1.83;;;;;;;;;;5036263;28;20060;-73
2021/08/18 07:23:04;;;;;;;6.10;1.85;;;;;;;;;;5053904;28;20032;-73
2021/08/18 07:25:30;;;;;;;5.55;1.95;;;;;;;;;;5054064;28;20108;-73
2021/08/18 07:27:56;;;;;;;4.25;1.80;;;;;;;;;;5054073;28;20023;-72
2021/08/18 07:30:22;;;;;;;5.38;1.70;;;;;;;;;;5054015;28;20028;-72
2021/08/18 07:32:49;;;;;;;4.32;2.00;;;;;;;;;;5053869;28;20032;-73
2021/08/18 07:35:15;;;;;;;4.10;1.85;;;;;;;;;;5053860;28;20021;-72
2021/08/18 07:37:42;;;;;;;4.63;1.90;;;;;;;;;;5053734;28;20533;-73
2021/08/18 07:40:08;;;;;;;5.43;2.10;;;;;;;;;;5036059;28;20031;-73
2021/08/18 07:42:34;;;;;;;7.80;2.35;;;;;;;;;;5053700;28;20017;-73
2021/08/18 07:45:00;;;;;;;5.22;2.15;;;;;;;;;;5035797;28;20021;-72
2021/08/18 07:47:26;;;;;;;7.40;2.03;;;;;;;;;;5053636;28;20435;-73
2021/08/18 07:49:52;;;;;;;5.50;2.13;;;;;;;;;;5053603;28;20494;-74
2021/08/18 07:52:18;;;;;;;7.60;2.38;;;;;;;;;;5053385;28;20396;-74
2021/08/18 07:54:46;;;;;;;7.15;2.53;;;;;;;;;;5053452;28;20156;-73
2021/08/18 07:57:13;;;;;;;4.78;2.30;;;;;;;;;;5053510;28;20056;-73
2021/08/18 07:59:39;;;;;;;4.93;2.35;;;;;;;;;;5052682;28;20687;-73
2021/08/18 08:02:05;;;;;;;4.25;1.88;;;;;;;;;;5053242;28;20025;-73
2021/08/18 08:04:31;;;;;;;6.85;2.55;;;;;;;;;;5047244;28;20032;-73
2021/08/18 08:06:57;;;;;;;6.70;2.55;;;;;;;;;;5053047;28;20025;-73
2021/08/18 08:09:23;;;;;;;8.05;2.30;;;;;;;;;;5035417;28;20021;-73
2021/08/18 08:11:50;;;;;;;6.50;2.70;;;;;;;;;;5053166;28;20111;-72
2021/08/18 08:14:16;;;;;;;7.93;2.97;;;;;;;;;;5053070;28;20053;-73
2021/08/18 08:16:42;;;;;;;9.32;2.70;;;;;;;;;;5034928;28;20021;-72
2021/08/18 08:19:08;;;;;;;5.88;2.53;;;;;;;;;;5052799;28;20104;-73
2021/08/18 08:21:34;;;;;;;5.22;2.70;;;;;;;;;;5034795;28;20025;-73
2021/08/18 08:24:00;;;;;;;6.38;2.95;;;;;;;;;;5034758;28;20172;-73
2021/08/18 08:26:26;;;;;;;6.90;3.00;;;;;;;;;;5034837;28;20428;-73
2021/08/18 08:28:52;;;;;;;6.45;2.97;;;;;;;;;;5052685;28;20021;-73
2021/08/18 08:31:18;;;;;;;4.97;2.67;;;;;;;;;;5034967;28;20024;-73
2021/08/18 08:33:45;;;;;;;10.20;3.53;;;;;;;;;;5035125;28;20373;-73
2021/08/18 08:36:11;;;;;;;7.22;3.47;;;;;;;;;;5052742;28;20025;-73
2021/08/18 08:38:37;;;;;;;8.32;3.50;;;;;;;;;;5034777;28;20128;-73
2021/08/18 08:41:04;;;;;;;6.82;3.42;;;;;;;;;;5034965;28;20021;-72
2021/08/18 08:43:30;;;;;;;9.32;3.28;;;;;;;;;;5052619;28;20025;-73
2021/08/18 08:45:56;;;;;;;6.28;3.28;;;;;;;;;;5052575;28;20028;-73
2021/08/18 08:48:22;;;;;;;8.60;3.38;;;;;;;;;;5052584;28;20021;-73
2021/08/18 08:50:49;;;;;;;7.07;3.30;;;;;;;;;;5052619;28;20027;-73
2021/08/18 08:53:15;;;;;;;7.55;3.53;;;;;;;;;;5052423;28;20053;-73
2021/08/18 08:55:42;;;;;;;7.53;3.45;;;;;;;;;;5052165;28;20451;-73
2021/08/18 08:58:08;;;;;;;7.40;3.72;;;;;;;;;;5052181;28;20071;-73
2021/08/18 09:00:34;;;;;;;7.63;4.07;;;;;;;;;;5052474;28;20594;-74
2021/08/18 09:03:08;;;;;;;11.90;3.88;;;;;;;;;;5052366;28;20055;-73
2021/08/18 09:05:34;;;;;;;6.85;3.38;;;;;;;;;;5034253;28;20025;-74
2021/08/18 09:08:00;;;;;;;8.43;3.65;;;;;;;;;;5052020;28;20099;-73
2021/08/18 09:10:27;;;;;;;6.95;3.58;;;;;;;;;;5034125;28;20028;-73
2021/08/18 09:13:08;;;;;;;6.63;3.35;;;;;;;;;;5051495;28;20048;-73
2021/08/18 09:15:34;;;;;;;8.10;3.45;;;;;;;;;;5052070;28;20434;-73
2021/08/18 09:18:00;;;;;;;10.40;3.53;;;;;;;;;;5052173;28;20029;-73
2021/08/18 09:20:30;;;;;;;7.88;3.67;;;;;;;;;;5052145;28;20033;-73
2021/08/18 09:22:57;;;;;;;7.68;3.95;;;;;;;;;;5034196;28;20534;-73
2021/08/18 09:25:38;;;;;;;7.75;3.65;;;;;;;;;;5034009;28;20048;-73
2021/08/18 09:28:05;;;;;;;7.13;3.30;;;;;;;;;;5051942;28;20024;-74
2021/08/18 09:30:51;;;;;;;7.43;3.67;;;;;;;;;;5034144;28;20522;-73
2021/08/18 09:33:18;;;;;;;7.15;3.40;;;;;;;;;;5033108;28;20139;-73
2021/08/18 09:35:45;;;;;;;6.55;3.53;;;;;;;;;;5033992;28;20021;-73
2021/08/18 09:38:13;;;;;;;7.05;3.67;;;;;;;;;;5051614;28;20071;-73
2021/08/18 09:40:39;;;;;;;9.45;3.75;;;;;;;;;;5051817;28;20053;-73
2021/08/18 09:43:08;;;;;;;7.93;3.17;;;;;;;;;;5034171;28;20025;-73
2021/08/18 09:45:35;;;;;;;9.82;3.50;;;;;;;;;;5052074;28;20027;-73
2021/08/18 09:48:08;;;;;;;8.52;3.78;;;;;;;;;;5034084;28;20029;-73
2021/08/18 09:50:41;;;;;;;7.10;2.95;;;;;;;;;;5051768;28;20068;-73
2021/08/18 09:53:07;;;;;;;;;;;;;;;;;;5034118;28;20392;-74
2021/08/18 09:55:33;;;;;;;5.97;3.15;;;;;;;;;;5051696;28;19905;-73
2021/08/18 09:58:00;;;;;;;8.77;3.22;;;;;;;;;;5051978;28;20392;-73
2021/08/18 10:00:26;;;;;;;5.13;2.95;;;;;;;;;;5051669;28;20029;-73
2021/08/18 10:02:52;;;;;;;5.25;2.80;;;;;;;;;;5033900;28;20025;-74
2021/08/18 10:05:18;;;;;;;6.57;3.00;;;;;;;;;;5044699;28;20480;-73
2021/08/18 10:07:45;;;;;;;5.53;2.92;;;;;;;;;;5035158;28;20045;-73
2021/08/18 10:10:12;;;;;;;7.22;2.92;;;;;;;;;;5035512;28;20021;-73
2021/08/18 10:12:38;;;;;;;6.45;3.40;;;;;;;;;;5033731;28;20041;-74
2021/08/18 10:15:05;;;;;;;6.18;3.20;;;;;;;;;;5034288;28;20108;-73
2021/08/18 10:17:31;;;;;;;6.47;3.20;;;;;;;;;;5036456;28;20028;-73
2021/08/18 10:19:58;;;;;;;7.60;3.40;;;;;;;;;;5034243;28;20440;-73
2021/08/18 10:22:26;;;;;;;8.77;3.63;;;;;;;;;;5036445;28;20040;-73
2021/08/18 10:24:52;;;;;;;6.40;3.05;;;;;;;;;;5029340;28;20021;-73
2021/08/18 10:27:38;;;;;;;5.97;2.80;;;;;;;;;;5040647;28;20020;-73
2021/08/18 10:30:26;;;;;;;7.00;3.08;;;;;;;;;;5040323;28;20022;-73
2021/08/18 10:32:52;;;;;;;9.02;3.72;;;;;;;;;;5038157;28;20026;-73
2021/08/18 10:35:37;;;;;;;6.10;2.88;;;;;;;;;;5029543;28;20058;-73
2021/08/18 10:38:22;;;;;;;7.40;3.72;;;;;;;;;;5038061;28;20159;-74
2021/08/18 10:40:48;;;;;;;6.22;3.35;;;;;;;;;;5035311;28;20144;-73
2021/08/18 10:43:32;;;;;;;6.95;3.28;;;;;;;;;;5035166;28;20013;-73
2021/08/18 10:45:58;;;;;;;6.55;3.10;;;;;;;;;;5035001;28;20464;-73
2021/08/18 10:48:43;;;;;;;5.25;2.97;;;;;;;;;;5034912;28;20089;-73
2021/08/18 10:51:09;;;;;;;7.00;3.17;;;;;;;;;;5034508;28;20029;-73
2021/08/18 10:53:35;;;;;;;6.13;2.72;;;;;;;;;;5034358;28;20128;-73
2021/08/18 10:56:21;;;;;;;6.13;3.08;;;;;;;;;;5033394;28;20071;-73
2021/08/18 10:58:47;;;;;;;6.40;3.05;;;;;;;;;;5034594;28;20056;-73
2021/08/18 11:01:33;;;;;;;6.93;3.20;;;;;;;;;;5034658;28;20097;-73
2021/08/18 11:04:19;;;;;;;6.00;3.05;;;;;;;;;;5034471;28;20040;-73
2021/08/18 11:06:51;;;;;;;4.97;2.80;;;;;;;;;;5044891;28;20061;-73
2021/08/18 11:09:44;;;;;;;5.95;3.17;;;;;;;;;;5054206;28;20028;-73
2021/08/18 11:12:10;;;;;;;4.20;2.30;;;;;;;;;;5023597;28;20045;-73
2021/08/18 11:14:36;;;;;;;6.47;2.90;;;;;;;;;;5036500;28;20028;-73
2021/08/18 11:17:06;;;;;;;5.45;2.65;;;;;;;;;;5054441;28;20036;-74
2021/08/18 11:19:33;;;;;;;5.80;3.10;;;;;;;;;;5054377;28;20025;-73
2021/08/18 11:21:59;;;;;;;6.50;2.90;;;;;;;;;;5054349;28;20027;-73
2021/08/18 11:24:25;;;;;;;5.95;2.55;;;;;;;;;;5036225;28;20025;-73
2021/08/18 11:26:53;;;;;;;5.68;2.42;;;;;;;;;;5036168;28;20032;-73
2021/08/18 11:29:20;;;;;;;5.43;2.97;;;;;;;;;;5053988;28;20013;-74
2021/08/18 11:31:50;;;;;;;8.25;3.08;;;;;;;;;;5053948;28;20083;-74
2021/08/18 11:34:19;;;;;;;5.32;2.97;;;;;;;;;;5035271;28;20427;-74
2021/08/18 11:36:46;;;;;;;6.47;2.92;;;;;;;;;;5053975;28;20045;-73
2021/08/18 11:39:12;;;;;;;5.20;3.00;;;;;;;;;;5036071;28;20029;-73
2021/08/18 11:41:45;;;;;;;6.60;3.30;;;;;;;;;;5053629;28;20449;-73
2021/08/18 11:44:25;;;;;;;5.13;2.55;;;;;;;;;;5053805;28;20067;-73
2021/08/18 11:46:52;;;;;;;5.80;3.05;;;;;;;;;;5053595;28;20095;-73
2021/08/18 11:49:18;;;;;;;6.72;2.97;;;;;;;;;;5053622;28;20021;-73
2021/08/18 11:51:51;;;;;;;6.80;2.47;;;;;;;;;;5053687;28;20033;-73
2021/08/18 11:54:20;;;;;;;5.95;2.75;;;;;;;;;;5035565;28;20045;-73
2021/08/18 11:56:57;;;;;;;4.97;2.72;;;;;;;;;;5035419;28;20021;-73
2021/08/18 11:59:23;;;;;;;5.90;3.10;;;;;;;;;;5053484;28;20029;-73
2021/08/18 12:01:52;;;;;;;5.50;2.80;;;;;;;;;;5053396;28;20028;-73
2021/08/18 12:04:20;;;;;;;5.53;2.83;;;;;;;;;;5053634;28;20025;-73
2021/08/18 12:06:47;;;;;;;8.63;2.92;;;;;;;;;;5053284;28;20052;-73
2021/08/18 12:09:21;;;;;;;6.00;2.40;;;;;;;;;;5035315;28;20032;-73
2021/08/18 12:11:47;;;;;;;4.57;2.35;;;;;;;;;;5052935;28;20013;-73
2021/08/18 12:14:18;;;;;;;6.15;2.50;;;;;;;;;;5035271;28;20112;-73
2021/08/18 12:16:44;;;;;;;5.28;2.72;;;;;;;;;;5053105;28;20114;-73
2021/08/18 12:19:18;;;;;;;6.53;2.72;;;;;;;;;;5053224;28;20078;-73
2021/08/18 12:21:44;;;;;;;5.07;2.50;;;;;;;;;;5053163;28;20430;-73
2021/08/18 12:24:12;;;;;;;6.63;2.80;;;;;;;;;;5053178;28;20104;-73
2021/08/18 12:26:40;;;;;;;5.53;2.70;;;;;;;;;;5052936;28;20032;-73
2021/08/18 12:29:08;;;;;;;5.57;2.75;;;;;;;;;;5034906;28;20021;-73
2021/08/18 12:31:53;;;;;;;4.45;2.08;;;;;;;;;;5052927;28;20025;-73
2021/08/18 12:34:40;;;;;;;4.40;2.40;;;;;;;;;;5034728;28;20025;-74
2021/08/18 12:37:07;;;;;;;5.07;2.45;;;;;;;;;;5052763;28;20036;-73
2021/08/18 12:39:36;;;;;;;5.50;2.58;;;;;;;;;;5052777;28;20045;-73
2021/08/18 12:42:02;;;;;;;6.53;2.55;;;;;;;;;;5052855;28;20043;-73
2021/08/18 12:44:29;;;;;;;5.03;2.58;;;;;;;;;;5034820;28;20025;-73
2021/08/18 12:47:04;;;;;;;8.02;2.95;;;;;;;;;;5052551;28;20121;-73
2021/08/18 12:49:31;;;;;;;5.32;2.22;;;;;;;;;;5052574;28;20423;-73
2021/08/18 12:51:59;;;;;;;7.13;2.78;;;;;;;;;;5034355;28;20124;-73
2021/08/18 12:54:25;;;;;;;6.70;2.63;;;;;;;;;;5052489;28;20053;-73
2021/08/18 12:56:51;;;;;;;4.63;2.30;;;;;;;;;;5034674;28;20049;-73
2021/08/18 12:59:17;;;;;;;5.20;2.20;;;;;;;;;;5034497;28;20065;-73
2021/08/18 13:01:43;;;;;;;5.05;2.30;;;;;;;;;;5052417;28;20021;-73
2021/08/18 13:04:09;;;;;;;7.25;2.90;;;;;;;;;;5052280;28;20029;-73
2021/08/18 13:06:36;;;;;;;6.60;2.55;;;;;;;;;;5044876;28;20651;-73
2021/08/18 13:09:02;;;;;;;5.70;2.53;;;;;;;;;;5035379;28;20053;-73
2021/08/18 13:11:30;;;;;;;5.22;2.42;;;;;;;;;;5035807;28;20076;-73
2021/08/18 13:13:56;;;;;;;5.15;2.42;;;;;;;;;;5035731;28;20037;-73
2021/08/18 13:16:22;;;;;;;5.03;2.28;;;;;;;;;;5039625;28;20024;-73
2021/08/18 13:18:48;;;;;;;4.47;2.30;;;;;;;;;;5034476;28;20029;-74
2021/08/18 13:21:14;;;;;;;4.25;2.10;;;;;;;;;;5036357;28;20022;-73
2021/08/18 13:23:41;;;;;;;4.50;1.90;;;;;;;;;;5051842;28;20067;-73
2021/08/18 13:26:07;;;;;;;4.97;2.53;;;;;;;;;;5052130;28;20029;-74
2021/08/18 13:28:33;;;;;;;6.00;2.40;;;;;;;;;;5034397;28;20071;-74
2021/08/18 13:30:59;;;;;;;5.00;2.10;;;;;;;;;;5052160;28;20108;-73
2021/08/18 13:33:25;;;;;;;6.63;2.40;;;;;;;;;;5051949;28;20484;-74
2021/08/18 13:35:51;;;;;;;6.50;2.33;;;;;;;;;;5034132;28;20025;-74
2021/08/18 13:38:17;;;;;;;6.63;2.22;;;;;;;;;;5034288;28;20029;-73
2021/08/18 13:40:43;;;;;;;5.05;2.25;;;;;;;;;;5051874;28;20024;-73
2021/08/18 13:43:09;;;;;;;5.32;2.08;;;;;;;;;;5052055;28;20391;-73
2021/08/18 13:45:37;;;;;;;4.50;2.30;;;;;;;;;;5052108;28;20014;-74
2021/08/18 13:48:04;;;;;;;4.85;2.13;;;;;;;;;;5051894;28;20025;-74
2021/08/18 13:50:30;;;;;;;5.82;2.30;;;;;;;;;;5033944;28;20439;-74
2021/08/18 13:52:56;;;;;;;5.15;2.17;;;;;;;;;;5051857;28;20645;-74
2021/08/18 13:55:22;;;;;;;4.35;2.15;;;;;;;;;;5034025;28;20048;-74
2021/08/18 13:57:48;;;;;;;5.07;2.50;;;;;;;;;;5034811;28;20028;-74
2021/08/18 14:00:14;;;;;;;5.18;2.28;;;;;;;;;;5055671;28;20021;-73
2021/08/18 14:02:40;;;;;;;5.25;2.13;;;;;;;;;;5055570;28;20029;-74
2021/08/18 14:05:06;;;;;;;4.57;2.40;;;;;;;;;;5055691;28;20017;-73
2021/08/18 14:07:33;;;;;;;3.92;2.08;;;;;;;;;;5037793;28;20025;-74
2021/08/18 14:09:59;;;;;;;6.78;2.10;;;;;;;;;;5055498;28;20070;-74
2021/08/18 14:12:25;;;;;;;4.93;2.17;;;;;;;;;;5037526;28;20044;-74
2021/08/18 14:14:51;;;;;;;5.63;1.88;;;;;;;;;;5055453;28;20475;-74
2021/08/18 14:17:17;;;;;;;5.25;2.28;;;;;;;;;;5055401;28;20391;-74
2021/08/18 14:19:44;;;;;;;7.07;2.28;;;;;;;;;;5055483;28;20013;-74
2021/08/18 14:22:10;;;;;;;5.60;2.55;;;;;;;;;;5037534;28;20183;-74
2021/08/18 14:24:36;;;;;;;5.10;2.63;;;;;;;;;;5055265;28;20021;-73
2021/08/18 14:27:02;;;;;;;5.88;2.20;;;;;;;;;;5037351;28;20024;-74
2021/08/18 14:29:28;;;;;;;4.60;2.30;;;;;;;;;;5037336;28;20036;-74
2021/08/18 14:31:54;;;;;;;4.70;2.20;;;;;;;;;;5055203;28;20028;-74
2021/08/18 14:34:22;;;;;;;4.43;2.10;;;;;;;;;;5037375;28;20052;-74
2021/08/18 14:36:48;;;;;;;6.70;2.40;;;;;;;;;;5055024;28;20021;-73
2021/08/18 14:39:14;;;;;;;3.92;1.90;;;;;;;;;;5037140;28;20025;-74
2021/08/18 14:41:41;;;;;;;5.53;2.65;;;;;;;;;;5037159;28;20414;-74
2021/08/18 14:44:07;;;;;;;6.40;2.70;;;;;;;;;;5054925;28;20031;-74